logo
Search for airport 
image banner adimage banner adimage banner ad
image banner ad

SGMASA - Masa

Located in Estancia Ararap, Paraguay

ICAO - , IATA -

Data provided by Airmate  

General information

Coordinates: S21°24'4" W61°8'28"
Elevation is 637 feet MSL.
Magnetic variation is -13° East
View others Airports in Boquerón Department

Operational data

Special qualification required
Current time UTC:
Current local time:
Weather at : - ( 0 km )
METAR: ZMUB 141700Z VRB01MPS 9999 FEW030CB BKN033 19/13 Q1011 NOSIG RMK QFE651.7 68 NT
View NOTAMs / SUP AIP / TFR affecting this airport [VIEW]
Communications frequencies: [VIEW]

Runways:

RWY identifierQFULength (ft)Width (ft)SurfaceLDA (ft)
01355°3495135DIRT
19175°3495135DIRT

Airport contact information

Address: Estancia Ararap Paraguay

Satellite view of SGMASA